createdAt,value
2018-07-09T00:00:44.484Z,18.40
2018-07-09T00:03:13.660Z,18.30
2018-07-09T00:05:42.768Z,18.20
2018-07-09T00:08:11.970Z,18.20
2018-07-09T00:10:52.152Z,18.10
2018-07-09T00:13:20.739Z,18.10
2018-07-09T00:15:48.800Z,18.00
2018-07-09T00:18:16.838Z,18.00
2018-07-09T00:20:45.119Z,17.90
2018-07-09T00:23:13.384Z,17.90
2018-07-09T00:25:41.553Z,17.90
2018-07-09T00:28:09.600Z,17.80
2018-07-09T00:30:37.648Z,17.80
2018-07-09T00:33:06.073Z,17.70
2018-07-09T00:35:34.117Z,17.60
2018-07-09T00:38:02.157Z,17.60
2018-07-09T00:40:30.197Z,17.50
2018-07-09T00:42:58.228Z,17.50
2018-07-09T00:45:26.278Z,17.40
2018-07-09T00:47:54.792Z,17.40
2018-07-09T00:50:22.862Z,17.30
2018-07-09T00:52:51.192Z,17.30
2018-07-09T00:55:19.584Z,17.20
2018-07-09T00:57:47.612Z,17.20
2018-07-09T01:00:15.656Z,17.10
2018-07-09T01:02:43.703Z,17.00
2018-07-09T01:05:11.749Z,17.00
2018-07-09T01:07:39.789Z,17.00
2018-07-09T01:10:07.821Z,17.00
2018-07-09T01:12:35.887Z,16.90
2018-07-09T01:15:03.945Z,16.90
2018-07-09T01:17:31.993Z,16.80
2018-07-09T01:20:00.064Z,16.80
2018-07-09T01:22:28.108Z,16.80
2018-07-09T01:24:56.157Z,16.80
2018-07-09T01:27:24.208Z,16.70
2018-07-09T01:29:52.274Z,16.70
2018-07-09T01:32:20.337Z,16.60
2018-07-09T01:34:48.368Z,16.60
2018-07-09T01:37:16.467Z,16.50
2018-07-09T01:39:44.509Z,16.40
2018-07-09T01:42:12.597Z,16.50
2018-07-09T01:47:08.444Z,16.40
2018-07-09T01:49:36.485Z,16.30
2018-07-09T01:52:04.540Z,16.30
2018-07-09T01:54:32.581Z,16.30
2018-07-09T02:01:56.424Z,16.20
2018-07-09T02:04:24.471Z,16.10
2018-07-09T02:06:52.525Z,16.10
2018-07-09T02:09:20.556Z,16.10
2018-07-09T02:11:48.691Z,16.10
2018-07-09T02:14:16.716Z,16.10
2018-07-09T02:16:44.769Z,16.00
2018-07-09T02:19:12.810Z,16.00
2018-07-09T02:21:40.849Z,16.00
2018-07-09T02:24:08.881Z,15.90
2018-07-09T02:29:04.804Z,15.90
2018-07-09T02:31:32.851Z,15.80
2018-07-09T02:34:00.885Z,15.80
2018-07-09T02:36:28.932Z,15.80
2018-07-09T02:38:56.964Z,15.70
2018-07-09T02:41:25.021Z,15.70
2018-07-09T02:43:53.057Z,15.70
2018-07-09T02:46:21.102Z,15.80
2018-07-09T02:48:49.141Z,15.70
2018-07-09T02:51:17.188Z,15.70
2018-07-09T02:53:45.221Z,15.70
2018-07-09T02:56:13.260Z,15.60
2018-07-09T02:58:41.301Z,15.50
2018-07-09T03:01:09.445Z,15.50
2018-07-09T03:03:37.393Z,15.50
2018-07-09T03:06:05.452Z,15.40
2018-07-09T03:08:33.497Z,15.40
2018-07-09T03:11:01.541Z,15.30
2018-07-09T03:13:29.601Z,15.30
2018-07-09T03:15:57.642Z,15.30
2018-07-09T03:18:25.683Z,15.20
2018-07-09T03:20:53.793Z,15.20
2018-07-09T03:23:21.777Z,15.20
2018-07-09T03:25:49.804Z,15.10
2018-07-09T03:28:17.853Z,15.10
2018-07-09T03:30:45.890Z,15.00
2018-07-09T03:33:13.937Z,15.10
2018-07-09T03:35:41.973Z,15.00
2018-07-09T03:38:10.017Z,15.00
2018-07-09T03:40:38.065Z,15.10
2018-07-09T03:43:06.308Z,15.10
2018-07-09T03:45:34.348Z,15.10
2018-07-09T03:48:02.392Z,15.10
2018-07-09T03:50:30.426Z,15.10
2018-07-09T03:52:58.476Z,15.10
2018-07-09T03:55:26.512Z,15.00
2018-07-09T03:57:54.825Z,15.00
2018-07-09T04:00:22.869Z,15.00
2018-07-09T04:02:50.913Z,15.10
2018-07-09T04:05:18.953Z,15.10
2018-07-09T04:07:47.000Z,15.10
2018-07-09T04:10:15.064Z,15.10
2018-07-09T04:12:43.137Z,15.10
2018-07-09T04:15:11.210Z,15.20
2018-07-09T04:17:39.388Z,15.20
2018-07-09T04:20:07.455Z,15.30
2018-07-09T04:22:35.520Z,15.30
2018-07-09T04:25:03.584Z,15.40
2018-07-09T04:27:31.652Z,15.40
2018-07-09T04:29:59.696Z,15.50
2018-07-09T04:32:27.756Z,15.50
2018-07-09T04:34:55.809Z,15.50
2018-07-09T04:37:23.864Z,15.50
2018-07-09T04:39:51.920Z,15.50
2018-07-09T04:42:19.989Z,15.50
2018-07-09T04:44:48.049Z,15.60
2018-07-09T04:47:16.187Z,15.70
2018-07-09T04:49:44.228Z,15.70
2018-07-09T04:52:12.294Z,15.80
2018-07-09T04:54:40.377Z,15.90
2018-07-09T04:57:08.445Z,15.90
2018-07-09T04:59:36.624Z,16.00
2018-07-09T05:02:04.688Z,16.10
2018-07-09T05:04:32.745Z,16.20
2018-07-09T05:07:00.864Z,16.30
2018-07-09T05:09:28.896Z,16.40
2018-07-09T05:11:56.977Z,16.50
2018-07-09T05:14:25.040Z,16.60
2018-07-09T05:16:53.093Z,16.70
2018-07-09T05:19:21.152Z,16.80
2018-07-09T05:21:49.213Z,16.90
2018-07-09T05:24:17.284Z,17.10
2018-07-09T05:26:45.349Z,17.30
2018-07-09T05:29:13.409Z,17.40
2018-07-09T05:31:41.465Z,17.60
2018-07-09T05:34:09.533Z,17.80
2018-07-09T05:36:37.597Z,17.90
2018-07-09T05:39:06.040Z,18.00
2018-07-09T05:41:34.152Z,18.20
2018-07-09T05:44:02.761Z,18.30
2018-07-09T05:46:30.813Z,18.40
2018-07-09T05:49:00.981Z,18.50
2018-07-09T05:51:29.032Z,18.70
2018-07-09T05:53:57.102Z,18.80
2018-07-09T05:56:25.153Z,19.00
2018-07-09T05:58:53.248Z,19.20
2018-07-09T06:01:21.272Z,19.30
2018-07-09T06:03:49.340Z,19.50
2018-07-09T06:06:17.397Z,19.70
2018-07-09T06:08:45.865Z,19.80
2018-07-09T06:11:13.962Z,20.00
2018-07-09T06:13:42.060Z,20.20
2018-07-09T06:16:10.010Z,20.40
2018-07-09T06:18:38.072Z,20.60
2018-07-09T06:21:06.249Z,20.90
2018-07-09T06:23:34.292Z,21.40
2018-07-09T06:26:02.332Z,22.10
2018-07-09T06:28:30.376Z,23.30
2018-07-09T06:30:58.453Z,24.70
2018-07-09T06:33:26.520Z,26.00
2018-07-09T06:35:54.561Z,27.40
2018-07-09T06:38:22.776Z,28.60
2018-07-09T06:40:50.820Z,29.80
2018-07-09T06:43:18.890Z,31.10
2018-07-09T06:45:46.925Z,32.00
2018-07-09T06:48:15.003Z,33.00
2018-07-09T06:50:43.297Z,34.00
2018-07-09T06:53:11.344Z,34.70
2018-07-09T06:55:39.384Z,35.40
2018-07-09T06:58:07.424Z,36.10
2018-07-09T07:00:35.473Z,36.80
2018-07-09T07:03:03.513Z,37.50
2018-07-09T07:05:31.591Z,38.00
2018-07-09T07:08:00.039Z,38.60
2018-07-09T07:10:28.072Z,38.90
2018-07-09T07:12:56.125Z,39.00
2018-07-09T07:15:24.164Z,38.80
2018-07-09T07:17:53.013Z,38.50
2018-07-09T07:20:21.052Z,38.10
2018-07-09T07:22:49.088Z,37.80
2018-07-09T07:25:17.128Z,37.30
2018-07-09T07:27:45.169Z,36.90
2018-07-09T07:30:13.212Z,36.40
2018-07-09T07:32:41.293Z,35.90
2018-07-09T07:35:09.296Z,35.40
2018-07-09T07:37:37.340Z,34.90
2018-07-09T07:40:05.490Z,34.40
2018-07-09T07:42:33.524Z,33.70
2018-07-09T07:45:01.993Z,33.20
2018-07-09T07:47:30.477Z,32.80
2018-07-09T07:49:58.533Z,32.60
2018-07-09T07:52:26.568Z,32.20
2018-07-09T07:54:54.636Z,31.90
2018-07-09T07:57:22.681Z,31.80
2018-07-09T07:59:50.732Z,31.50
2018-07-09T08:02:18.780Z,31.50
2018-07-09T08:04:46.833Z,31.40
2018-07-09T08:07:14.880Z,31.20
2018-07-09T08:09:42.977Z,31.20
2018-07-09T08:13:00.552Z,31.20
2018-07-09T08:14:39.033Z,31.30
2018-07-09T08:17:07.073Z,31.30
2018-07-09T08:19:35.155Z,31.40
2018-07-09T08:22:03.192Z,31.30
2018-07-09T08:24:31.245Z,31.30
2018-07-09T08:26:59.320Z,31.40
2018-07-09T08:29:27.425Z,31.40
2018-07-09T08:31:55.424Z,31.50
2018-07-09T08:34:23.479Z,31.50
2018-07-09T08:36:51.552Z,31.70
2018-07-09T08:41:54.128Z,31.80
2018-07-09T08:44:22.192Z,32.00
2018-07-09T08:46:50.229Z,32.00
2018-07-09T08:49:18.289Z,32.10
2018-07-09T08:51:46.333Z,32.10
2018-07-09T08:54:14.409Z,32.10
2018-07-09T08:56:42.458Z,32.30
2018-07-09T08:59:10.513Z,32.50
2018-07-09T09:01:38.540Z,32.60
2018-07-09T09:04:06.745Z,32.70
2018-07-09T09:06:34.787Z,32.70
2018-07-09T09:09:03.668Z,32.80
2018-07-09T09:11:31.725Z,32.90
2018-07-09T09:13:59.816Z,32.90
2018-07-09T09:16:27.922Z,32.60
2018-07-09T09:18:55.929Z,32.40
2018-07-09T09:23:51.912Z,32.40
2018-07-09T09:26:19.933Z,32.50
2018-07-09T09:28:47.993Z,32.80
2018-07-09T09:31:16.069Z,33.00
2018-07-09T09:33:44.079Z,33.10
2018-07-09T09:36:12.133Z,33.20
2018-07-09T09:38:40.172Z,32.90
2018-07-09T09:41:08.221Z,33.10
2018-07-09T09:43:36.265Z,33.20
2018-07-09T09:46:04.325Z,33.40
2018-07-09T09:48:32.350Z,33.80
2018-07-09T09:51:00.392Z,33.90
2018-07-09T09:53:28.429Z,33.90
2018-07-09T09:55:56.476Z,33.70
2018-07-09T09:58:24.565Z,33.90
2018-07-09T10:00:52.897Z,34.20
2018-07-09T10:03:20.936Z,34.40
2018-07-09T10:05:49.368Z,34.60
2018-07-09T10:08:17.405Z,34.70
2018-07-09T10:10:45.641Z,34.70
2018-07-09T10:13:13.760Z,34.60
2018-07-09T10:15:41.809Z,34.60
2018-07-09T10:18:09.844Z,34.60
2018-07-09T10:20:37.892Z,34.50
2018-07-09T10:23:06.041Z,34.30
2018-07-09T10:25:33.989Z,34.30
2018-07-09T10:28:02.025Z,34.50
2018-07-09T10:30:30.166Z,34.60
2018-07-09T10:32:58.124Z,34.70
2018-07-09T10:35:26.388Z,34.70
2018-07-09T10:37:54.525Z,34.80
2018-07-09T10:40:22.761Z,34.80
2018-07-09T10:42:50.804Z,35.00
2018-07-09T10:45:18.849Z,35.10
2018-07-09T10:47:46.884Z,35.20
2018-07-09T10:50:14.932Z,35.20
2018-07-09T10:52:42.969Z,35.30
2018-07-09T10:55:11.044Z,35.40
2018-07-09T10:57:39.056Z,35.30
2018-07-09T11:00:07.113Z,35.40
2018-07-09T11:02:35.153Z,35.10
2018-07-09T11:05:03.217Z,34.90
2018-07-09T11:07:31.253Z,35.00
2018-07-09T11:09:59.448Z,35.20
2018-07-09T11:12:27.604Z,35.10
2018-07-09T11:14:55.672Z,35.30
2018-07-09T11:17:23.728Z,35.50
2018-07-09T11:19:51.776Z,35.80
2018-07-09T11:22:19.820Z,36.10
2018-07-09T11:24:47.868Z,36.30
2018-07-09T11:27:15.909Z,36.50
2018-07-09T11:29:43.964Z,36.50
2018-07-09T11:32:12.064Z,36.50
2018-07-09T11:34:40.121Z,36.30
2018-07-09T11:37:08.154Z,36.40
2018-07-09T11:39:36.196Z,36.40
2018-07-09T11:42:04.289Z,36.30
2018-07-09T11:44:32.282Z,36.30
2018-07-09T11:47:00.332Z,36.50
2018-07-09T11:49:28.515Z,36.70
2018-07-09T11:51:56.581Z,36.70
2018-07-09T11:54:24.617Z,36.50
2018-07-09T11:56:52.673Z,36.30
2018-07-09T11:59:20.716Z,36.10
2018-07-09T12:01:48.775Z,36.10
2018-07-09T12:04:16.807Z,36.10
2018-07-09T12:06:44.893Z,36.10
2018-07-09T12:09:12.989Z,36.10
2018-07-09T12:11:41.289Z,36.20
2018-07-09T12:14:09.375Z,36.50
2018-07-09T12:16:37.448Z,36.40
2018-07-09T12:19:05.488Z,36.50
2018-07-09T12:21:33.551Z,36.60
2018-07-09T12:24:01.578Z,36.70
2018-07-09T12:26:29.627Z,35.80
2018-07-09T12:28:57.673Z,35.20
2018-07-09T12:31:25.713Z,35.00
2018-07-09T12:33:53.757Z,35.10
2018-07-09T12:36:21.855Z,35.10
2018-07-09T12:38:49.856Z,34.90
2018-07-09T12:41:17.907Z,34.70
2018-07-09T12:43:45.976Z,34.50
2018-07-09T12:46:14.045Z,34.50
2018-07-09T12:48:42.060Z,34.80
2018-07-09T12:51:10.109Z,35.00
2018-07-09T12:53:38.144Z,35.20
2018-07-09T12:56:06.226Z,35.40
2018-07-09T12:58:34.272Z,35.40
2018-07-09T13:01:02.316Z,35.60
2018-07-09T13:03:30.365Z,35.80
2018-07-09T13:05:58.420Z,35.70
2018-07-09T13:08:26.453Z,35.70
2018-07-09T13:10:54.510Z,35.60
2018-07-09T13:13:22.556Z,35.60
2018-07-09T13:15:50.601Z,35.70
2018-07-09T13:18:18.645Z,35.50
2018-07-09T13:20:46.713Z,35.50
2018-07-09T13:23:14.760Z,35.50
2018-07-09T13:25:42.822Z,35.40
2018-07-09T13:28:10.871Z,35.20
2018-07-09T13:30:38.912Z,35.30
2018-07-09T13:33:06.952Z,35.40
2018-07-09T13:35:35.005Z,35.20
2018-07-09T13:38:03.107Z,35.10
2018-07-09T13:42:59.057Z,34.70
2018-07-09T13:45:27.515Z,34.70
2018-07-09T13:47:55.668Z,34.80
2018-07-09T13:50:23.749Z,35.10
2018-07-09T13:52:52.126Z,35.50
2018-07-09T13:55:20.165Z,35.50
2018-07-09T13:57:48.212Z,35.50
2018-07-09T14:00:16.252Z,35.30
2018-07-09T14:02:44.296Z,35.00
2018-07-09T14:05:12.348Z,34.80
2018-07-09T14:07:40.425Z,34.70
2018-07-09T14:10:08.472Z,34.70
2018-07-09T14:12:36.528Z,34.70
2018-07-09T14:15:04.657Z,34.80
2018-07-09T14:17:32.696Z,35.00
2018-07-09T14:20:53.264Z,35.00
2018-07-09T14:23:21.316Z,34.90
2018-07-09T14:25:49.357Z,34.70
2018-07-09T14:28:17.413Z,34.50
2018-07-09T14:33:13.389Z,34.00
2018-07-09T14:35:41.454Z,33.50
2018-07-09T14:38:09.499Z,33.50
2018-07-09T14:40:37.556Z,33.50
2018-07-09T14:43:05.598Z,33.40
2018-07-09T14:45:33.638Z,33.30
2018-07-09T14:48:01.708Z,32.90
2018-07-09T14:50:29.723Z,32.80
2018-07-09T14:52:57.780Z,32.70
2018-07-09T14:55:25.820Z,32.70
2018-07-09T14:57:53.888Z,32.60
2018-07-09T15:00:21.912Z,32.50
2018-07-09T15:02:49.993Z,32.40
2018-07-09T15:05:18.041Z,32.30
2018-07-09T15:07:46.080Z,32.20
2018-07-09T15:10:14.120Z,31.80
2018-07-09T15:12:42.173Z,31.60
2018-07-09T15:15:10.216Z,31.40
2018-07-09T15:17:38.273Z,31.30
2018-07-09T15:20:06.400Z,31.40
2018-07-09T15:22:34.429Z,31.50
2018-07-09T15:25:02.476Z,31.60
2018-07-09T15:27:30.613Z,31.70
2018-07-09T15:29:58.654Z,31.80
2018-07-09T15:32:28.975Z,32.00
2018-07-09T15:34:57.073Z,32.00
2018-07-09T15:37:25.222Z,32.00
2018-07-09T15:39:53.544Z,32.10
2018-07-09T15:42:21.602Z,32.10
2018-07-09T15:44:49.661Z,32.00
2018-07-09T15:47:17.705Z,32.00
2018-07-09T15:49:45.896Z,31.90
2018-07-09T15:52:14.284Z,31.70
2018-07-09T15:54:42.556Z,31.60
2018-07-09T15:57:10.605Z,31.50
2018-07-09T15:59:39.032Z,31.20
2018-07-09T16:02:07.060Z,31.00
2018-07-09T16:04:35.108Z,30.90
2018-07-09T16:07:03.168Z,30.90
2018-07-09T16:09:31.241Z,30.90
2018-07-09T16:11:59.320Z,30.90
2018-07-09T16:14:27.380Z,31.00
2018-07-09T16:16:55.448Z,31.10
2018-07-09T16:19:23.518Z,31.20
2018-07-09T16:21:51.596Z,31.20
2018-07-09T16:24:19.673Z,31.20
2018-07-09T16:26:47.725Z,31.10
2018-07-09T16:29:15.832Z,30.90
2018-07-09T16:31:43.896Z,30.80
2018-07-09T16:34:11.961Z,30.60
2018-07-09T16:36:40.049Z,30.40
2018-07-09T16:39:08.404Z,30.20
2018-07-09T16:41:36.589Z,30.00
2018-07-09T16:44:04.693Z,29.90
2018-07-09T16:46:32.832Z,29.80
2018-07-09T16:49:00.891Z,29.70
2018-07-09T16:51:28.933Z,29.60
2018-07-09T16:53:57.117Z,29.50
2018-07-09T16:56:25.180Z,29.40
2018-07-09T16:58:53.284Z,29.20
2018-07-09T17:01:21.357Z,29.20
2018-07-09T17:03:49.434Z,29.00
2018-07-09T17:06:17.500Z,29.00
2018-07-09T17:08:45.573Z,28.70
2018-07-09T17:11:13.640Z,28.60
2018-07-09T17:13:41.781Z,28.50
2018-07-09T17:16:09.809Z,28.40
2018-07-09T17:18:37.872Z,28.30
2018-07-09T17:21:06.092Z,28.30
2018-07-09T17:23:34.140Z,28.20
2018-07-09T17:26:02.204Z,28.10
2018-07-09T17:28:30.253Z,28.10
2018-07-09T17:30:58.313Z,28.20
2018-07-09T17:33:26.384Z,28.10
2018-07-09T17:35:54.417Z,28.00
2018-07-09T17:38:22.501Z,28.00
2018-07-09T17:40:50.553Z,27.90
2018-07-09T17:43:18.609Z,27.90
2018-07-09T17:45:46.637Z,27.90
2018-07-09T17:48:14.693Z,28.00
2018-07-09T17:50:42.737Z,28.00
2018-07-09T17:53:10.892Z,27.90
2018-07-09T17:55:38.936Z,27.80
2018-07-09T17:58:06.985Z,27.80
2018-07-09T18:00:35.044Z,27.80
2018-07-09T18:03:03.109Z,27.70
2018-07-09T18:05:31.251Z,27.70
2018-07-09T18:07:59.328Z,27.70
2018-07-09T18:10:27.378Z,27.50
2018-07-09T18:12:55.489Z,27.40
2018-07-09T18:15:23.553Z,27.40
2018-07-09T18:20:19.562Z,27.10
2018-07-09T18:22:47.616Z,27.00
2018-07-09T18:25:15.680Z,27.00
2018-07-09T18:27:43.744Z,26.90
2018-07-09T18:30:11.810Z,26.90
2018-07-09T18:32:39.952Z,26.90
2018-07-09T18:35:07.945Z,26.90
2018-07-09T18:37:36.009Z,26.90
2018-07-09T18:40:04.134Z,26.90
2018-07-09T18:42:32.289Z,26.80
2018-07-09T18:45:00.873Z,26.80
2018-07-09T18:47:28.933Z,26.80
2018-07-09T18:49:56.997Z,26.70
2018-07-09T18:52:25.140Z,26.70
2018-07-09T18:54:53.204Z,26.60
2018-07-09T18:57:21.277Z,26.50
2018-07-09T18:59:49.349Z,26.50
2018-07-09T19:02:17.408Z,26.40
2018-07-09T19:04:45.489Z,26.40
2018-07-09T19:07:26.289Z,26.30
2018-07-09T19:09:54.476Z,26.20
2018-07-09T19:12:22.785Z,26.10
2018-07-09T19:14:51.564Z,26.00
2018-07-09T19:17:59.081Z,25.90
2018-07-09T19:20:38.741Z,25.80
2018-07-09T19:23:06.924Z,25.70
2018-07-09T19:25:35.110Z,25.50
2018-07-09T19:28:02.989Z,25.40
2018-07-09T19:30:30.265Z,25.30
2018-07-09T19:32:57.397Z,25.20
2018-07-09T19:35:24.545Z,25.10
2018-07-09T19:37:52.036Z,25.00
2018-07-09T19:40:18.830Z,24.90
2018-07-09T19:42:45.980Z,24.80
2018-07-09T19:45:13.125Z,24.70
2018-07-09T19:47:40.301Z,24.60
2018-07-09T19:50:07.501Z,24.50
2018-07-09T19:52:34.632Z,24.40
2018-07-09T19:55:01.805Z,24.30
2018-07-09T19:57:28.957Z,24.20
2018-07-09T19:59:56.108Z,24.20
2018-07-09T20:02:23.255Z,24.00
2018-07-09T20:04:50.396Z,23.90
2018-07-09T20:07:17.537Z,23.90
2018-07-09T20:09:50.212Z,23.80
2018-07-09T20:12:22.729Z,23.80
2018-07-09T20:14:55.348Z,23.70
2018-07-09T20:17:27.633Z,23.70
2018-07-09T20:19:54.760Z,23.70
2018-07-09T20:22:21.892Z,23.60
2018-07-09T20:24:49.037Z,23.50
2018-07-09T20:27:16.205Z,23.50
2018-07-09T20:29:43.340Z,23.50
2018-07-09T20:32:10.472Z,23.50
2018-07-09T20:34:37.608Z,23.50
2018-07-09T20:37:04.740Z,23.50
2018-07-09T20:39:31.886Z,23.40
2018-07-09T20:41:59.020Z,23.40
2018-07-09T20:44:26.180Z,23.30
2018-07-09T20:46:53.292Z,23.30
2018-07-09T20:49:20.486Z,23.30
2018-07-09T20:51:47.617Z,23.20
2018-07-09T20:54:14.754Z,23.20
2018-07-09T20:56:41.893Z,23.20
2018-07-09T20:59:09.025Z,23.20
2018-07-09T21:01:36.181Z,23.10
2018-07-09T21:04:08.724Z,23.10
2018-07-09T21:06:35.869Z,23.10
2018-07-09T21:09:03.077Z,23.10
2018-07-09T21:11:30.217Z,23.10
2018-07-09T21:16:24.805Z,23.00
2018-07-09T21:18:51.893Z,23.00
2018-07-09T21:21:19.032Z,23.00
2018-07-09T21:23:46.165Z,23.00
2018-07-09T21:26:13.326Z,23.00
2018-07-09T21:28:40.483Z,23.00
2018-07-09T21:31:07.593Z,23.00
2018-07-09T21:33:34.724Z,22.90
2018-07-09T21:36:01.894Z,22.90
2018-07-09T21:38:29.029Z,22.90
2018-07-09T21:40:56.173Z,22.90
2018-07-09T21:43:23.737Z,22.80
2018-07-09T21:45:50.829Z,22.90
2018-07-09T21:48:29.775Z,22.90
2018-07-09T21:50:45.557Z,22.80
2018-07-09T21:53:12.767Z,22.80
2018-07-09T21:55:40.118Z,22.90
2018-07-09T21:58:07.377Z,22.80
2018-07-09T22:00:34.730Z,22.80
2018-07-09T22:03:02.018Z,22.70
2018-07-09T22:05:29.163Z,22.70
2018-07-09T22:07:56.444Z,22.70
2018-07-09T22:10:23.581Z,22.70
2018-07-09T22:12:50.713Z,22.60
2018-07-09T22:15:17.856Z,22.70
2018-07-09T22:17:44.993Z,22.70
2018-07-09T22:20:12.163Z,22.70
2018-07-09T22:22:39.292Z,22.70
2018-07-09T22:25:06.432Z,22.70
2018-07-09T22:27:33.569Z,22.70
2018-07-09T22:30:00.704Z,22.80
2018-07-09T22:32:28.758Z,22.80
2018-07-09T22:34:56.809Z,22.80
2018-07-09T22:37:24.856Z,22.80
2018-07-09T22:39:52.913Z,22.80
2018-07-09T22:42:20.959Z,22.80
2018-07-09T22:44:48.990Z,22.80
2018-07-09T22:47:17.036Z,22.80
2018-07-09T22:49:45.184Z,22.80
2018-07-09T22:52:13.377Z,22.70
2018-07-09T22:54:41.412Z,22.70
2018-07-09T22:57:09.647Z,22.60
2018-07-09T22:59:38.029Z,22.60
2018-07-09T23:02:06.219Z,22.50
2018-07-09T23:04:34.265Z,22.50
2018-07-09T23:07:02.309Z,22.50
2018-07-09T23:10:07.949Z,22.50
2018-07-09T23:12:49.349Z,22.50
2018-07-09T23:15:30.257Z,22.50
2018-07-09T23:18:10.102Z,22.50
2018-07-09T23:20:49.841Z,22.40
2018-07-09T23:23:16.973Z,22.40
2018-07-09T23:25:44.113Z,22.40
2018-07-09T23:28:11.244Z,22.40
2018-07-09T23:30:38.402Z,22.40
2018-07-09T23:33:05.528Z,22.30
2018-07-09T23:35:32.665Z,22.40
2018-07-09T23:37:59.810Z,22.40
2018-07-09T23:40:26.948Z,22.30
2018-07-09T23:42:54.089Z,22.30
2018-07-09T23:45:21.221Z,22.40
2018-07-09T23:47:48.369Z,22.40
2018-07-09T23:50:15.508Z,22.40
2018-07-09T23:52:42.648Z,22.40
2018-07-09T23:55:09.784Z,22.40
2018-07-09T23:58:22.297Z,22.40
